Terminal Aerodrome Forecast
Issued by NWS Wilmington, NC

Home | Current Version | Previous Version | Text Only | Print | Product List | Glossary On
Versions: 1 2 3 4 5 6 7 8 9 10 11 12 13 14 15 16 17 18 19
398
FTUS42 KILM 061953 AAA
TAFFLO
TAF AMD
KFLO 061953Z 0620/0718 02007KT 1SM BR OVC005
     FM062100 27005KT 4SM BR BKN010
     FM070900 30007KT 2SM BR BKN008
      TEMPO 0709/0713 1SM BR OVC007
     FM071300 31005KT 5SM BR SCT010
     FM071400 33007KT P6SM SCT020=

USA.gov is the U.S. government's official web portal to all federal, state and local government web resources and services.